sensor_id;sensor_type;location;lat;lon;timestamp;pressure;altitude;pressure_sealevel;temperature;humidity
39891;BME280;25564;53.312;9.790;2023-12-20T00:01:07;100364.81;;;6.11;100.00
39891;BME280;25564;53.312;9.790;2023-12-20T00:03:39;100370.09;;;6.06;100.00
39891;BME280;25564;53.312;9.790;2023-12-20T00:06:13;100386.78;;;6.04;100.00
39891;BME280;25564;53.312;9.790;2023-12-20T00:08:45;100378.03;;;5.99;100.00
39891;BME280;25564;53.312;9.790;2023-12-20T00:11:16;100381.56;;;5.96;100.00
39891;BME280;25564;53.312;9.790;2023-12-20T00:13:47;100379.78;;;6.03;100.00
39891;BME280;25564;53.312;9.790;2023-12-20T00:16:22;100362.25;;;5.99;100.00
39891;BME280;25564;53.312;9.790;2023-12-20T00:18:53;100368.41;;;5.92;100.00
39891;BME280;25564;53.312;9.790;2023-12-20T00:21:25;100364.03;;;5.84;100.00
39891;BME280;25564;53.312;9.790;2023-12-20T00:23:56;100360.53;;;5.76;100.00
39891;BME280;25564;53.312;9.790;2023-12-20T00:26:27;100360.56;;;5.67;100.00
39891;BME280;25564;53.312;9.790;2023-12-20T00:29:00;100369.34;;;5.63;100.00
39891;BME280;25564;53.312;9.790;2023-12-20T00:31:31;100367.63;;;5.59;100.00
39891;BME280;25564;53.312;9.790;2023-12-20T00:34:02;100357.97;;;5.53;100.00
39891;BME280;25564;53.312;9.790;2023-12-20T00:36:34;100358.88;;;5.51;100.00
39891;BME280;25564;53.312;9.790;2023-12-20T00:39:06;100371.13;;;5.58;100.00
39891;BME280;25564;53.312;9.790;2023-12-20T00:41:38;100360.59;;;5.63;100.00
39891;BME280;25564;53.312;9.790;2023-12-20T00:44:09;100371.06;;;5.76;100.00
39891;BME280;25564;53.312;9.790;2023-12-20T00:46:40;100357.88;;;5.93;100.00
39891;BME280;25564;53.312;9.790;2023-12-20T00:49:12;100357.81;;;6.07;100.00
39891;BME280;25564;53.312;9.790;2023-12-20T00:51:43;100355.09;;;6.19;100.00
39891;BME280;25564;53.312;9.790;2023-12-20T00:54:15;100360.31;;;6.25;100.00
39891;BME280;25564;53.312;9.790;2023-12-20T00:56:46;100357.63;;;6.33;100.00
39891;BME280;25564;53.312;9.790;2023-12-20T00:59:19;100350.56;;;6.39;100.00
39891;BME280;25564;53.312;9.790;2023-12-20T01:01:50;100346.16;;;6.41;100.00
39891;BME280;25564;53.312;9.790;2023-12-20T01:04:22;100340.06;;;6.35;100.00
39891;BME280;25564;53.312;9.790;2023-12-20T01:06:54;100328.75;;;6.22;100.00
39891;BME280;25564;53.312;9.790;2023-12-20T01:09:25;100339.38;;;6.08;100.00
39891;BME280;25564;53.312;9.790;2023-12-20T01:11:58;100345.56;;;5.95;100.00
39891;BME280;25564;53.312;9.790;2023-12-20T01:14:29;100348.22;;;5.87;100.00
39891;BME280;25564;53.312;9.790;2023-12-20T01:17:01;100327.19;;;5.75;100.00
39891;BME280;25564;53.312;9.790;2023-12-20T01:19:32;100329.84;;;5.71;100.00
39891;BME280;25564;53.312;9.790;2023-12-20T01:22:05;100327.22;;;5.66;100.00
39891;BME280;25564;53.312;9.790;2023-12-20T01:24:36;100326.34;;;5.67;100.00
39891;BME280;25564;53.312;9.790;2023-12-20T01:27:08;100326.34;;;5.67;100.00
39891;BME280;25564;53.312;9.790;2023-12-20T01:29:39;100322.81;;;5.71;100.00
39891;BME280;25564;53.312;9.790;2023-12-20T01:32:10;100321.97;;;5.66;100.00
39891;BME280;25564;53.312;9.790;2023-12-20T01:34:42;100319.34;;;5.63;100.00
39891;BME280;25564;53.312;9.790;2023-12-20T01:37:14;100324.63;;;5.57;100.00
39891;BME280;25564;53.312;9.790;2023-12-20T01:39:45;100320.25;;;5.56;100.00
39891;BME280;25564;53.312;9.790;2023-12-20T01:42:18;100314.13;;;5.51;100.00
39891;BME280;25564;53.312;9.790;2023-12-20T01:44:49;100316.78;;;5.45;100.00
39891;BME280;25564;53.312;9.790;2023-12-20T01:47:20;100311.50;;;5.45;100.00
39891;BME280;25564;53.312;9.790;2023-12-20T01:49:53;100315.03;;;5.44;100.00
39891;BME280;25564;53.312;9.790;2023-12-20T01:52:25;100300.09;;;5.46;100.00
39891;BME280;25564;53.312;9.790;2023-12-20T01:54:57;100307.09;;;5.51;100.00
39891;BME280;25564;53.312;9.790;2023-12-20T01:57:34;100307.06;;;5.65;100.00
39891;BME280;25564;53.312;9.790;2023-12-20T02:00:06;100304.38;;;5.76;100.00
39891;BME280;25564;53.312;9.790;2023-12-20T02:02:39;100304.34;;;5.80;100.00
39891;BME280;25564;53.312;9.790;2023-12-20T02:05:11;100300.88;;;5.75;100.00
39891;BME280;25564;53.312;9.790;2023-12-20T02:07:43;100305.25;;;5.73;100.00
39891;BME280;25564;53.312;9.790;2023-12-20T02:10:15;100294.75;;;5.67;100.00
39891;BME280;25564;53.312;9.790;2023-12-20T02:12:47;100293.91;;;5.59;100.00
39891;BME280;25564;53.312;9.790;2023-12-20T02:15:18;100284.28;;;5.55;100.00
39891;BME280;25564;53.312;9.790;2023-12-20T02:17:50;100286.94;;;5.53;100.00
39891;BME280;25564;53.312;9.790;2023-12-20T02:20:22;100284.31;;;5.50;100.00
39891;BME280;25564;53.312;9.790;2023-12-20T02:22:53;100281.66;;;5.50;100.00
39891;BME280;25564;53.312;9.790;2023-12-20T02:25:25;100277.28;;;5.51;100.00
39891;BME280;25564;53.312;9.790;2023-12-20T02:27:56;100271.13;;;5.53;100.00
39891;BME280;25564;53.312;9.790;2023-12-20T02:30:27;100266.75;;;5.55;100.00
39891;BME280;25564;53.312;9.790;2023-12-20T02:32:59;100268.50;;;5.56;100.00
39891;BME280;25564;53.312;9.790;2023-12-20T02:35:33;100265.84;;;5.58;100.00
39891;BME280;25564;53.312;9.790;2023-12-20T02:38:04;100264.09;;;5.58;100.00
39891;BME280;25564;53.312;9.790;2023-12-20T02:40:35;100253.56;;;5.57;100.00
39891;BME280;25564;53.312;9.790;2023-12-20T02:43:07;100264.97;;;5.56;100.00
39891;BME280;25564;53.312;9.790;2023-12-20T02:45:38;100261.47;;;5.54;100.00
39891;BME280;25564;53.312;9.790;2023-12-20T02:48:10;100268.50;;;5.52;100.00
39891;BME280;25564;53.312;9.790;2023-12-20T02:50:41;100263.25;;;5.47;100.00
39891;BME280;25564;53.312;9.790;2023-12-20T02:53:13;100257.13;;;5.44;100.00
39891;BME280;25564;53.312;9.790;2023-12-20T02:55:44;100255.38;;;5.44;100.00
39891;BME280;25564;53.312;9.790;2023-12-20T02:58:15;100250.13;;;5.41;100.00
39891;BME280;25564;53.312;9.790;2023-12-20T03:00:48;100246.63;;;5.41;100.00
39891;BME280;25564;53.312;9.790;2023-12-20T03:03:20;100252.75;;;5.46;100.00
39891;BME280;25564;53.312;9.790;2023-12-20T03:05:51;100239.56;;;5.52;100.00
39891;BME280;25564;53.312;9.790;2023-12-20T03:08:23;100238.69;;;5.53;100.00
39891;BME280;25564;53.312;9.790;2023-12-20T03:10:54;100235.13;;;5.58;100.00
39891;BME280;25564;53.312;9.790;2023-12-20T03:13:26;100237.72;;;5.69;100.00
39891;BME280;25564;53.312;9.790;2023-12-20T03:15:57;100234.16;;;5.76;100.00
39891;BME280;25564;53.312;9.790;2023-12-20T03:18:29;100231.47;;;5.87;100.00
39891;BME280;25564;53.312;9.790;2023-12-20T03:21:00;100225.34;;;5.89;100.00
39891;BME280;25564;53.312;9.790;2023-12-20T03:27:23;100221.81;;;5.94;100.00
39891;BME280;25564;53.312;9.790;2023-12-20T03:29:54;100221.78;;;5.97;100.00
39891;BME280;25564;53.312;9.790;2023-12-20T03:32:26;100212.09;;;6.00;100.00
39891;BME280;25564;53.312;9.790;2023-12-20T03:34:57;100205.03;;;6.05;100.00
39891;BME280;25564;53.312;9.790;2023-12-20T03:37:29;100213.78;;;6.10;100.00
39891;BME280;25564;53.312;9.790;2023-12-20T03:40:01;100201.50;;;6.08;100.00
39891;BME280;25564;53.312;9.790;2023-12-20T03:42:32;100201.50;;;6.09;100.00
39891;BME280;25564;53.312;9.790;2023-12-20T03:45:04;100198.84;;;6.11;100.00
39891;BME280;25564;53.312;9.790;2023-12-20T03:47:35;100206.72;;;6.15;100.00
39891;BME280;25564;53.312;9.790;2023-12-20T03:50:07;100190.91;;;6.17;100.00
39891;BME280;25564;53.312;9.790;2023-12-20T03:52:39;100204.94;;;6.20;100.00
39891;BME280;25564;53.312;9.790;2023-12-20T03:55:10;100194.31;;;6.25;100.00
39891;BME280;25564;53.312;9.790;2023-12-20T03:57:41;100195.16;;;6.30;100.00
39891;BME280;25564;53.312;9.790;2023-12-20T04:00:13;100195.13;;;6.33;100.00
39891;BME280;25564;53.312;9.790;2023-12-20T04:02:45;100186.31;;;6.37;100.00
39891;BME280;25564;53.312;9.790;2023-12-20T04:05:16;100191.56;;;6.40;100.00
39891;BME280;25564;53.312;9.790;2023-12-20T04:07:48;100192.38;;;6.45;100.00
39891;BME280;25564;53.312;9.790;2023-12-20T04:10:21;100195.00;;;6.48;100.00
39891;BME280;25564;53.312;9.790;2023-12-20T04:12:53;100182.66;;;6.50;100.00
39891;BME280;25564;53.312;9.790;2023-12-20T04:15:26;100186.19;;;6.51;100.00
39891;BME280;25564;53.312;9.790;2023-12-20T04:17:57;100176.50;;;6.53;100.00
39891;BME280;25564;53.312;9.790;2023-12-20T04:20:29;100175.59;;;6.55;100.00
39891;BME280;25564;53.312;9.790;2023-12-20T04:23:01;100166.75;;;6.60;100.00
39891;BME280;25564;53.312;9.790;2023-12-20T04:25:32;100152.72;;;6.57;100.00
39891;BME280;25564;53.312;9.790;2023-12-20T04:28:04;100151.81;;;6.62;100.00
39891;BME280;25564;53.312;9.790;2023-12-20T04:30:35;100163.19;;;6.67;100.00
39891;BME280;25564;53.312;9.790;2023-12-20T04:33:07;100166.63;;;6.72;100.00
39891;BME280;25564;53.312;9.790;2023-12-20T04:35:38;100168.34;;;6.77;100.00
39891;BME280;25564;53.312;9.790;2023-12-20T04:38:11;100156.91;;;6.77;100.00
39891;BME280;25564;53.312;9.790;2023-12-20T04:40:43;100160.41;;;6.79;100.00
39891;BME280;25564;53.312;9.790;2023-12-20T04:43:14;100157.75;;;6.82;100.00
39891;BME280;25564;53.312;9.790;2023-12-20T04:45:46;100160.34;;;6.83;100.00
39891;BME280;25564;53.312;9.790;2023-12-20T04:48:17;100168.22;;;6.88;100.00
39891;BME280;25564;53.312;9.790;2023-12-20T04:50:48;100153.25;;;6.88;100.00
39891;BME280;25564;53.312;9.790;2023-12-20T04:53:20;100146.22;;;6.91;100.00
39891;BME280;25564;53.312;9.790;2023-12-20T04:55:51;100154.09;;;6.92;100.00
39891;BME280;25564;53.312;9.790;2023-12-20T04:58:22;100153.22;;;6.92;100.00
39891;BME280;25564;53.312;9.790;2023-12-20T05:00:54;100146.19;;;6.92;100.00
39891;BME280;25564;53.312;9.790;2023-12-20T05:03:25;100154.06;;;6.95;100.00
39891;BME280;25564;53.312;9.790;2023-12-20T05:05:57;100153.19;;;6.95;100.00
39891;BME280;25564;53.312;9.790;2023-12-20T05:08:28;100143.56;;;6.92;100.00
39891;BME280;25564;53.312;9.790;2023-12-20T05:11:00;100127.69;;;6.95;100.00
39891;BME280;25564;53.312;9.790;2023-12-20T05:13:31;100131.19;;;6.96;100.00
39891;BME280;25564;53.312;9.790;2023-12-20T05:16:15;100140.00;;;6.96;100.00
39891;BME280;25564;53.312;9.790;2023-12-20T05:18:49;100135.56;;;6.98;100.00
39891;BME280;25564;53.312;9.790;2023-12-20T05:21:21;100139.91;;;7.02;100.00
39891;BME280;25564;53.312;9.790;2023-12-20T05:23:52;100144.28;;;7.03;100.00
39891;BME280;25564;53.312;9.790;2023-12-20T05:26:24;100132.00;;;7.02;100.00
39891;BME280;25564;53.312;9.790;2023-12-20T05:28:55;100139.03;;;7.03;100.00
39891;BME280;25564;53.312;9.790;2023-12-20T05:31:26;100138.13;;;7.06;100.00
39891;BME280;25564;53.312;9.790;2023-12-20T05:33:58;100136.34;;;7.06;100.00
39891;BME280;25564;53.312;9.790;2023-12-20T05:36:30;100125.75;;;7.09;100.00
39891;BME280;25564;53.312;9.790;2023-12-20T05:39:01;100138.00;;;7.13;100.00
39891;BME280;25564;53.312;9.790;2023-12-20T05:41:33;100143.28;;;7.13;100.00
39891;BME280;25564;53.312;9.790;2023-12-20T05:44:04;100138.06;;;7.10;100.00
39891;BME280;25564;53.312;9.790;2023-12-20T05:46:35;100131.88;;;7.11;100.00
39891;BME280;25564;53.312;9.790;2023-12-20T05:49:07;100123.06;;;7.14;100.00
39891;BME280;25564;53.312;9.790;2023-12-20T05:51:39;100129.22;;;7.14;100.00
39891;BME280;25564;53.312;9.790;2023-12-20T05:54:10;100122.16;;;7.16;100.00
39891;BME280;25564;53.312;9.790;2023-12-20T05:56:42;100116.88;;;7.16;100.00
39891;BME280;25564;53.312;9.790;2023-12-20T05:59:14;100112.47;;;7.17;100.00
39891;BME280;25564;53.312;9.790;2023-12-20T06:01:46;100107.22;;;7.14;100.00
39891;BME280;25564;53.312;9.790;2023-12-20T06:04:17;100112.50;;;7.14;100.00
39891;BME280;25564;53.312;9.790;2023-12-20T06:06:51;100117.84;;;7.08;100.00
39891;BME280;25564;53.312;9.790;2023-12-20T06:09:23;100108.22;;;7.05;100.00
39891;BME280;25564;53.312;9.790;2023-12-20T06:11:54;100117.91;;;7.05;100.00
39891;BME280;25564;53.312;9.790;2023-12-20T06:14:25;100109.91;;;7.09;100.00
39891;BME280;25564;53.312;9.790;2023-12-20T06:16:57;100107.25;;;7.11;100.00
39891;BME280;25564;53.312;9.790;2023-12-20T06:19:29;100111.66;;;7.10;100.00
39891;BME280;25564;53.312;9.790;2023-12-20T06:22:00;100108.09;;;7.14;100.00
39891;BME280;25564;53.312;9.790;2023-12-20T06:24:32;100105.47;;;7.13;100.00
39891;BME280;25564;53.312;9.790;2023-12-20T06:27:05;100114.25;;;7.15;100.00
39891;BME280;25564;53.312;9.790;2023-12-20T06:29:36;100100.19;;;7.13;100.00
39891;BME280;25564;53.312;9.790;2023-12-20T06:32:08;100099.31;;;7.14;100.00
39891;BME280;25564;53.312;9.790;2023-12-20T06:34:39;100080.94;;;7.08;100.00
39891;BME280;25564;53.312;9.790;2023-12-20T06:37:11;100087.13;;;7.04;100.00
39891;BME280;25564;53.312;9.790;2023-12-20T06:39:43;100089.75;;;7.05;100.00
39891;BME280;25564;53.312;9.790;2023-12-20T06:42:14;100083.59;;;7.06;100.00
39891;BME280;25564;53.312;9.790;2023-12-20T06:44:45;100079.13;;;7.10;100.00
39891;BME280;25564;53.312;9.790;2023-12-20T06:47:17;100069.47;;;7.10;100.00
39891;BME280;25564;53.312;9.790;2023-12-20T06:49:49;100069.41;;;7.13;100.00
39891;BME280;25564;53.312;9.790;2023-12-20T06:52:20;100068.56;;;7.11;100.00
39891;BME280;25564;53.312;9.790;2023-12-20T06:54:52;100071.22;;;7.10;100.00
39891;BME280;25564;53.312;9.790;2023-12-20T06:57:23;100047.50;;;7.08;100.00
39891;BME280;25564;53.312;9.790;2023-12-20T06:59:57;100032.53;;;7.09;100.00
39891;BME280;25564;53.312;9.790;2023-12-20T07:02:29;100044.91;;;7.05;100.00
39891;BME280;25564;53.312;9.790;2023-12-20T07:05:01;100039.59;;;7.08;100.00
39891;BME280;25564;53.312;9.790;2023-12-20T07:07:33;100031.63;;;7.11;100.00
39891;BME280;25564;53.312;9.790;2023-12-20T07:10:04;100033.34;;;7.14;100.00
39891;BME280;25564;53.312;9.790;2023-12-20T07:12:36;100033.34;;;7.14;100.00
39891;BME280;25564;53.312;9.790;2023-12-20T07:15:08;100051.75;;;7.18;100.00
39891;BME280;25564;53.312;9.790;2023-12-20T07:17:39;100044.72;;;7.17;100.00
39891;BME280;25564;53.312;9.790;2023-12-20T07:20:11;100043.88;;;7.15;100.00
39891;BME280;25564;53.312;9.790;2023-12-20T07:22:42;100037.72;;;7.16;100.00
39891;BME280;25564;53.312;9.790;2023-12-20T07:25:14;100038.53;;;7.20;100.00
39891;BME280;25564;53.312;9.790;2023-12-20T07:27:45;100042.91;;;7.22;100.00
39891;BME280;25564;53.312;9.790;2023-12-20T07:30:17;100046.41;;;7.23;100.00
39891;BME280;25564;53.312;9.790;2023-12-20T07:32:49;100036.69;;;7.25;100.00
39891;BME280;25564;53.312;9.790;2023-12-20T07:35:20;100032.28;;;7.26;100.00
39891;BME280;25564;53.312;9.790;2023-12-20T07:37:52;100038.31;;;7.32;100.00
39891;BME280;25564;53.312;9.790;2023-12-20T07:40:23;100035.66;;;7.34;100.00
39891;BME280;25564;53.312;9.790;2023-12-20T07:42:55;100028.63;;;7.34;100.00
39891;BME280;25564;53.312;9.790;2023-12-20T07:45:27;100027.75;;;7.34;100.00
39891;BME280;25564;53.312;9.790;2023-12-20T07:47:58;100021.53;;;7.38;100.00
39891;BME280;25564;53.312;9.790;2023-12-20T07:50:29;100023.28;;;7.37;100.00
39891;BME280;25564;53.312;9.790;2023-12-20T07:53:02;100014.53;;;7.34;100.00
39891;BME280;25564;53.312;9.790;2023-12-20T07:55:34;100010.13;;;7.34;100.00
39891;BME280;25564;53.312;9.790;2023-12-20T07:58:05;100007.53;;;7.33;100.00
39891;BME280;25564;53.312;9.790;2023-12-20T08:00:37;100011.91;;;7.34;100.00
39891;BME280;25564;53.312;9.790;2023-12-20T08:03:09;100018.03;;;7.36;100.00
39891;BME280;25564;53.312;9.790;2023-12-20T08:05:40;100008.38;;;7.35;100.00
39891;BME280;25564;53.312;9.790;2023-12-20T08:08:12;100015.38;;;7.36;100.00
39891;BME280;25564;53.312;9.790;2023-12-20T08:10:43;100018.03;;;7.36;100.00
39891;BME280;25564;53.312;9.790;2023-12-20T08:13:15;100000.44;;;7.35;100.00
39891;BME280;25564;53.312;9.790;2023-12-20T08:15:47;100008.34;;;7.36;100.00
39891;BME280;25564;53.312;9.790;2023-12-20T08:18:18;99992.47;;;7.39;100.00
39891;BME280;25564;53.312;9.790;2023-12-20T08:20:50;99986.22;;;7.43;100.00
39891;BME280;25564;53.312;9.790;2023-12-20T08:23:24;99984.47;;;7.44;100.00
39891;BME280;25564;53.312;9.790;2023-12-20T08:25:58;99984.47;;;7.44;100.00
39891;BME280;25564;53.312;9.790;2023-12-20T08:28:29;99978.19;;;7.51;100.00
39891;BME280;25564;53.312;9.790;2023-12-20T08:31:02;99976.38;;;7.54;100.00
39891;BME280;25564;53.312;9.790;2023-12-20T08:33:34;99963.19;;;7.53;100.00
39891;BME280;25564;53.312;9.790;2023-12-20T08:36:05;99964.81;;;7.60;100.00
39891;BME280;25564;53.312;9.790;2023-12-20T08:38:37;99963.84;;;7.66;100.00
39891;BME280;25564;53.312;9.790;2023-12-20T08:41:09;99962.00;;;7.71;100.00
39891;BME280;25564;53.312;9.790;2023-12-20T08:43:41;99947.88;;;7.73;100.00
39891;BME280;25564;53.312;9.790;2023-12-20T08:46:14;99964.50;;;7.78;100.00
39891;BME280;25564;53.312;9.790;2023-12-20T08:48:45;99959.31;;;7.72;100.00
39891;BME280;25564;53.312;9.790;2023-12-20T08:51:17;99962.03;;;7.69;100.00
39891;BME280;25564;53.312;9.790;2023-12-20T08:53:48;99957.81;;;7.59;100.00
39891;BME280;25564;53.312;9.790;2023-12-20T08:56:20;99953.50;;;7.53;100.00
39891;BME280;25564;53.312;9.790;2023-12-20T08:58:52;99937.78;;;7.46;100.00
39891;BME280;25564;53.312;9.790;2023-12-20T09:01:24;99935.28;;;7.38;100.00
39891;BME280;25564;53.312;9.790;2023-12-20T09:03:55;99928.28;;;7.36;100.00
39891;BME280;25564;53.312;9.790;2023-12-20T09:06:27;99927.41;;;7.37;100.00
39891;BME280;25564;53.312;9.790;2023-12-20T09:08:59;99924.75;;;7.37;100.00
39891;BME280;25564;53.312;9.790;2023-12-20T09:11:30;99911.56;;;7.37;100.00
39891;BME280;25564;53.312;9.790;2023-12-20T09:14:02;99893.09;;;7.37;100.00
39891;BME280;25564;53.312;9.790;2023-12-20T09:16:34;99905.41;;;7.36;100.00
39891;BME280;25564;53.312;9.790;2023-12-20T09:19:06;99883.41;;;7.37;100.00
39891;BME280;25564;53.312;9.790;2023-12-20T09:21:38;99910.66;;;7.38;100.00
39891;BME280;25564;53.312;9.790;2023-12-20T09:24:09;99893.97;;;7.36;100.00
39891;BME280;25564;53.312;9.790;2023-12-20T09:26:40;99896.66;;;7.34;100.00
39891;BME280;25564;53.312;9.790;2023-12-20T09:29:13;99930.97;;;7.34;100.00
39891;BME280;25564;53.312;9.790;2023-12-20T09:31:46;99972.38;;;7.31;100.00
39891;BME280;25564;53.312;9.790;2023-12-20T09:34:18;99982.06;;;7.29;100.00
39891;BME280;25564;53.312;9.790;2023-12-20T09:36:49;100004.16;;;7.25;100.00
39891;BME280;25564;53.312;9.790;2023-12-20T09:39:21;100022.88;;;7.08;100.00
39891;BME280;25564;53.312;9.790;2023-12-20T09:42:06;100020.81;;;6.67;100.00
39891;BME280;25564;53.312;9.790;2023-12-20T09:44:38;99994.72;;;6.44;100.00
39891;BME280;25564;53.312;9.790;2023-12-20T09:47:19;100011.50;;;6.37;100.00
39891;BME280;25564;53.312;9.790;2023-12-20T09:49:52;99995.22;;;6.06;100.00
39891;BME280;25564;53.312;9.790;2023-12-20T09:52:24;99973.22;;;6.08;100.00
39891;BME280;25564;53.312;9.790;2023-12-20T09:54:56;99967.94;;;6.10;100.00
39891;BME280;25564;53.312;9.790;2023-12-20T09:57:28;99964.41;;;6.12;100.00
39891;BME280;25564;53.312;9.790;2023-12-20T09:59:59;99966.09;;;6.19;100.00
39891;BME280;25564;53.312;9.790;2023-12-20T10:02:31;99958.06;;;6.27;100.00
39891;BME280;25564;53.312;9.790;2023-12-20T10:05:06;99972.94;;;6.30;100.00
39891;BME280;25564;53.312;9.790;2023-12-20T10:07:40;99968.50;;;6.33;100.00
39891;BME280;25564;53.312;9.790;2023-12-20T10:10:13;99970.19;;;6.39;100.00
39891;BME280;25564;53.312;9.790;2023-12-20T10:13:04;99978.16;;;6.34;100.00
39891;BME280;25564;53.312;9.790;2023-12-20T10:15:37;99979.06;;;6.33;100.00
39891;BME280;25564;53.312;9.790;2023-12-20T10:18:12;99980.81;;;6.34;100.00
39891;BME280;25564;53.312;9.790;2023-12-20T10:20:44;99977.31;;;6.32;100.00
39891;BME280;25564;53.312;9.790;2023-12-20T10:23:15;99981.56;;;6.42;100.00
39891;BME280;25564;53.312;9.790;2023-12-20T10:25:57;99991.16;;;6.49;100.00
39891;BME280;25564;53.312;9.790;2023-12-20T10:28:36;99973.50;;;6.54;100.00
39891;BME280;25564;53.312;9.790;2023-12-20T10:31:08;99962.81;;;6.67;100.00
39891;BME280;25564;53.312;9.790;2023-12-20T10:33:40;99985.53;;;6.77;100.00
39891;BME280;25564;53.312;9.790;2023-12-20T10:36:12;99992.50;;;6.81;100.00
39891;BME280;25564;53.312;9.790;2023-12-20T10:38:46;99989.75;;;6.88;100.00
39891;BME280;25564;53.312;9.790;2023-12-20T10:41:24;99970.31;;;6.94;100.00
39891;BME280;25564;53.312;9.790;2023-12-20T10:43:59;99972.94;;;6.96;100.00
39891;BME280;25564;53.312;9.790;2023-12-20T10:46:31;99964.97;;;7.00;100.00
39891;BME280;25564;53.312;9.790;2023-12-20T10:49:06;99967.59;;;7.00;100.00
39891;BME280;25564;53.312;9.790;2023-12-20T10:51:40;99961.44;;;7.00;100.00
39891;BME280;25564;53.312;9.790;2023-12-20T10:54:13;99958.75;;;7.03;100.00
39891;BME280;25564;53.312;9.790;2023-12-20T10:56:45;99962.28;;;7.03;100.00
39891;BME280;25564;53.312;9.790;2023-12-20T10:59:19;99961.34;;;7.07;100.00
39891;BME280;25564;53.312;9.790;2023-12-20T11:01:53;99959.53;;;7.09;100.00
39891;BME280;25564;53.312;9.790;2023-12-20T11:04:31;99955.13;;;7.11;100.00
39891;BME280;25564;53.312;9.790;2023-12-20T11:07:17;99956.03;;;7.09;100.00
39891;BME280;25564;53.312;9.790;2023-12-20T11:10:00;99950.06;;;6.98;100.00
39891;BME280;25564;53.312;9.790;2023-12-20T11:12:41;99948.16;;;7.07;100.00
39891;BME280;25564;53.312;9.790;2023-12-20T11:15:15;99948.09;;;7.10;100.00
39891;BME280;25564;53.312;9.790;2023-12-20T11:17:55;99940.06;;;7.18;100.00
39891;BME280;25564;53.312;9.790;2023-12-20T11:20:40;99948.78;;;7.23;100.00
39891;BME280;25564;53.312;9.790;2023-12-20T11:23:12;99939.81;;;7.32;100.00
39891;BME280;25564;53.312;9.790;2023-12-20T11:25:55;99941.44;;;7.39;100.00
39891;BME280;25564;53.312;9.790;2023-12-20T11:28:29;99944.06;;;7.39;100.00
39891;BME280;25564;53.312;9.790;2023-12-20T11:31:03;99948.47;;;7.38;100.00
39891;BME280;25564;53.312;9.790;2023-12-20T11:33:37;99959.16;;;7.32;100.00
39891;BME280;25564;53.312;9.790;2023-12-20T11:36:18;99933.91;;;7.17;100.00
39891;BME280;25564;53.312;9.790;2023-12-20T11:38:57;99934.06;;;7.08;100.00
39891;BME280;25564;53.312;9.790;2023-12-20T11:41:32;99932.41;;;7.01;100.00
39891;BME280;25564;53.312;9.790;2023-12-20T11:44:04;99936.88;;;6.98;100.00
39891;BME280;25564;53.312;9.790;2023-12-20T11:46:38;99946.53;;;6.99;100.00
39891;BME280;25564;53.312;9.790;2023-12-20T11:49:10;99945.66;;;6.97;100.00
39891;BME280;25564;53.312;9.790;2023-12-20T11:51:42;99936.88;;;6.96;100.00
39891;BME280;25564;53.312;9.790;2023-12-20T11:54:15;99946.53;;;6.97;100.00
39891;BME280;25564;53.312;9.790;2023-12-20T11:56:47;99937.72;;;6.98;100.00
39891;BME280;25564;53.312;9.790;2023-12-20T11:59:19;99950.84;;;7.04;100.00
39891;BME280;25564;53.312;9.790;2023-12-20T12:01:54;99959.47;;;7.14;100.00
39891;BME280;25564;53.312;9.790;2023-12-20T12:04:31;99953.97;;;7.28;100.00
39891;BME280;25564;53.312;9.790;2023-12-20T12:07:03;99942.91;;;7.55;100.00
39891;BME280;25564;53.312;9.790;2023-12-20T12:09:35;99957.47;;;7.77;100.00
39891;BME280;25564;53.312;9.790;2023-12-20T12:12:06;99961.53;;;7.95;100.00
39891;BME280;25564;53.312;9.790;2023-12-20T12:14:42;99960.63;;;7.98;100.00
39891;BME280;25564;53.312;9.790;2023-12-20T12:17:14;99957.19;;;7.93;100.00
39891;BME280;25564;53.312;9.790;2023-12-20T12:19:45;99966.19;;;7.82;100.00
39891;BME280;25564;53.312;9.790;2023-12-20T12:22:17;99959.34;;;7.71;100.00
39891;BME280;25564;53.312;9.790;2023-12-20T12:24:50;99951.78;;;7.51;100.00
39891;BME280;25564;53.312;9.790;2023-12-20T12:27:22;99959.16;;;7.31;100.00
39891;BME280;25564;53.312;9.790;2023-12-20T12:30:04;99978.84;;;7.13;100.00
39891;BME280;25564;53.312;9.790;2023-12-20T12:32:38;99948.34;;;6.95;100.00
39891;BME280;25564;53.312;9.790;2023-12-20T12:35:10;99947.84;;;6.67;100.00
39891;BME280;25564;53.312;9.790;2023-12-20T12:37:42;99952.59;;;6.42;100.00
39891;BME280;25564;53.312;9.790;2023-12-20T12:40:15;99946.66;;;6.25;100.00
39891;BME280;25564;53.312;9.790;2023-12-20T12:42:47;99949.44;;;6.16;100.00
39891;BME280;25564;53.312;9.790;2023-12-20T12:45:18;99957.41;;;6.10;100.00
39891;BME280;25564;53.312;9.790;2023-12-20T12:47:50;99944.28;;;6.05;100.00
39891;BME280;25564;53.312;9.790;2023-12-20T12:50:22;99933.78;;;6.02;100.00
39891;BME280;25564;53.312;9.790;2023-12-20T12:52:53;99946.03;;;6.08;100.00
39891;BME280;25564;53.312;9.790;2023-12-20T12:55:25;99950.34;;;6.13;100.00
39891;BME280;25564;53.312;9.790;2023-12-20T12:57:56;99950.34;;;6.13;100.00
39891;BME280;25564;53.312;9.790;2023-12-20T13:00:28;99951.22;;;6.14;100.00
39891;BME280;25564;53.312;9.790;2023-12-20T13:02:59;99957.31;;;6.17;100.00
39891;BME280;25564;53.312;9.790;2023-12-20T13:05:31;99953.78;;;6.20;100.00
39891;BME280;25564;53.312;9.790;2023-12-20T13:08:07;99951.09;;;6.23;100.00
39891;BME280;25564;53.312;9.790;2023-12-20T13:10:40;99957.91;;;6.38;100.00
39891;BME280;25564;53.312;9.790;2023-12-20T13:13:12;99950.63;;;6.58;100.00
39891;BME280;25564;53.312;9.790;2023-12-20T13:15:43;99945.03;;;6.81;100.00
39891;BME280;25564;53.312;9.790;2023-12-20T13:18:22;99961.44;;;7.00;100.00
39891;BME280;25564;53.312;9.790;2023-12-20T13:20:54;99953.41;;;7.07;100.00
39891;BME280;25564;53.312;9.790;2023-12-20T13:23:25;99954.13;;;7.18;100.00